sensor_id;sensor_type;location;lat;lon;timestamp;P1;durP1;ratioP1;P2;durP2;ratioP2
60306;SDS011;46155;52.364;6.580;2023-12-07T04:00:55;27.03;;;15.47;;
60306;SDS011;46155;52.364;6.580;2023-12-07T04:03:20;28.23;;;16.77;;
60306;SDS011;46155;52.364;6.580;2023-12-07T04:05:45;25.07;;;16.77;;
60306;SDS011;46155;52.364;6.580;2023-12-07T04:08:11;24.53;;;17.87;;
60306;SDS011;46155;52.364;6.580;2023-12-07T04:10:37;25.57;;;19.27;;
60306;SDS011;46155;52.364;6.580;2023-12-07T04:13:02;23.87;;;16.63;;
60306;SDS011;46155;52.364;6.580;2023-12-07T04:15:28;25.13;;;18.23;;
60306;SDS011;46155;52.364;6.580;2023-12-07T04:17:53;26.87;;;16.60;;
60306;SDS011;46155;52.364;6.580;2023-12-07T04:20:18;27.60;;;16.30;;
60306;SDS011;46155;52.364;6.580;2023-12-07T04:22:44;24.13;;;17.60;;
60306;SDS011;46155;52.364;6.580;2023-12-07T04:25:10;23.67;;;17.00;;
60306;SDS011;46155;52.364;6.580;2023-12-07T04:27:36;30.53;;;17.03;;
60306;SDS011;46155;52.364;6.580;2023-12-07T04:30:01;26.27;;;17.03;;
60306;SDS011;46155;52.364;6.580;2023-12-07T04:32:27;31.93;;;17.43;;
60306;SDS011;46155;52.364;6.580;2023-12-07T04:34:52;24.83;;;18.73;;
60306;SDS011;46155;52.364;6.580;2023-12-07T04:37:18;27.20;;;17.40;;
60306;SDS011;46155;52.364;6.580;2023-12-07T04:39:43;28.10;;;18.37;;
60306;SDS011;46155;52.364;6.580;2023-12-07T04:42:09;29.53;;;17.87;;
60306;SDS011;46155;52.364;6.580;2023-12-07T04:44:34;26.63;;;17.60;;
60306;SDS011;46155;52.364;6.580;2023-12-07T04:46:59;31.13;;;17.63;;
60306;SDS011;46155;52.364;6.580;2023-12-07T04:49:25;27.73;;;18.50;;
60306;SDS011;46155;52.364;6.580;2023-12-07T04:51:50;32.93;;;18.00;;
60306;SDS011;46155;52.364;6.580;2023-12-07T04:54:15;30.83;;;19.67;;
60306;SDS011;46155;52.364;6.580;2023-12-07T04:56:41;35.13;;;19.00;;
60306;SDS011;46155;52.364;6.580;2023-12-07T04:59:07;35.53;;;20.40;;
60306;SDS011;46155;52.364;6.580;2023-12-07T05:01:33;26.07;;;17.67;;
60306;SDS011;46155;52.364;6.580;2023-12-07T05:04:00;30.40;;;18.97;;
60306;SDS011;46155;52.364;6.580;2023-12-07T05:06:25;28.30;;;17.97;;
60306;SDS011;46155;52.364;6.580;2023-12-07T05:08:50;32.63;;;19.50;;
60306;SDS011;46155;52.364;6.580;2023-12-07T05:11:15;32.93;;;19.97;;
60306;SDS011;46155;52.364;6.580;2023-12-07T05:13:41;31.27;;;18.73;;
60306;SDS011;46155;52.364;6.580;2023-12-07T05:16:06;30.73;;;19.10;;
60306;SDS011;46155;52.364;6.580;2023-12-07T05:18:31;35.63;;;19.90;;
60306;SDS011;46155;52.364;6.580;2023-12-07T05:20:57;32.30;;;19.03;;
60306;SDS011;46155;52.364;6.580;2023-12-07T05:23:22;31.63;;;18.37;;
60306;SDS011;46155;52.364;6.580;2023-12-07T05:25:47;37.73;;;18.90;;
60306;SDS011;46155;52.364;6.580;2023-12-07T05:28:12;28.10;;;17.93;;
60306;SDS011;46155;52.364;6.580;2023-12-07T05:30:38;27.83;;;17.10;;
60306;SDS011;46155;52.364;6.580;2023-12-07T05:33:03;34.30;;;20.17;;
60306;SDS011;46155;52.364;6.580;2023-12-07T05:35:28;30.73;;;18.07;;
60306;SDS011;46155;52.364;6.580;2023-12-07T05:37:54;30.77;;;18.67;;
60306;SDS011;46155;52.364;6.580;2023-12-07T05:40:19;36.83;;;20.43;;
60306;SDS011;46155;52.364;6.580;2023-12-07T05:42:46;29.13;;;18.00;;
60306;SDS011;46155;52.364;6.580;2023-12-07T05:45:15;31.33;;;21.33;;
60306;SDS011;46155;52.364;6.580;2023-12-07T05:47:41;26.90;;;18.10;;
60306;SDS011;46155;52.364;6.580;2023-12-07T05:50:06;33.73;;;20.40;;
60306;SDS011;46155;52.364;6.580;2023-12-07T05:52:32;32.40;;;19.10;;
60306;SDS011;46155;52.364;6.580;2023-12-07T05:54:57;33.00;;;17.80;;
60306;SDS011;46155;52.364;6.580;2023-12-07T05:57:23;47.57;;;17.43;;
60306;SDS011;46155;52.364;6.580;2023-12-07T05:59:48;48.70;;;17.77;;
60306;SDS011;46155;52.364;6.580;2023-12-07T06:02:14;55.93;;;20.33;;
60306;SDS011;46155;52.364;6.580;2023-12-07T06:04:40;51.23;;;17.87;;
60306;SDS011;46155;52.364;6.580;2023-12-07T06:07:05;51.93;;;19.10;;
60306;SDS011;46155;52.364;6.580;2023-12-07T06:09:30;56.70;;;17.93;;
60306;SDS011;46155;52.364;6.580;2023-12-07T06:11:56;44.30;;;19.23;;
60306;SDS011;46155;52.364;6.580;2023-12-07T06:14:22;45.30;;;18.37;;
60306;SDS011;46155;52.364;6.580;2023-12-07T06:16:50;39.27;;;17.53;;
60306;SDS011;46155;52.364;6.580;2023-12-07T06:19:15;37.17;;;18.30;;
60306;SDS011;46155;52.364;6.580;2023-12-07T06:21:41;33.93;;;19.73;;
60306;SDS011;46155;52.364;6.580;2023-12-07T06:24:06;73.80;;;19.43;;
60306;SDS011;46155;52.364;6.580;2023-12-07T06:26:32;38.23;;;18.50;;
60306;SDS011;46155;52.364;6.580;2023-12-07T06:28:57;42.97;;;19.03;;
60306;SDS011;46155;52.364;6.580;2023-12-07T06:31:23;34.43;;;16.53;;
60306;SDS011;46155;52.364;6.580;2023-12-07T06:33:49;24.17;;;16.23;;
60306;SDS011;46155;52.364;6.580;2023-12-07T06:36:17;54.47;;;16.93;;
60306;SDS011;46155;52.364;6.580;2023-12-07T06:38:46;29.60;;;17.97;;
60306;SDS011;46155;52.364;6.580;2023-12-07T06:41:12;38.63;;;16.47;;
60306;SDS011;46155;52.364;6.580;2023-12-07T06:43:38;26.83;;;18.43;;
60306;SDS011;46155;52.364;6.580;2023-12-07T06:46:04;33.13;;;17.10;;
60306;SDS011;46155;52.364;6.580;2023-12-07T06:48:29;47.17;;;17.53;;
60306;SDS011;46155;52.364;6.580;2023-12-07T06:50:54;21.33;;;17.57;;
60306;SDS011;46155;52.364;6.580;2023-12-07T06:53:20;40.67;;;18.83;;
60306;SDS011;46155;52.364;6.580;2023-12-07T06:55:45;48.60;;;18.97;;
60306;SDS011;46155;52.364;6.580;2023-12-07T06:58:11;96.97;;;20.37;;
60306;SDS011;46155;52.364;6.580;2023-12-07T07:00:36;60.43;;;19.40;;
60306;SDS011;46155;52.364;6.580;2023-12-07T07:03:02;52.53;;;21.03;;
60306;SDS011;46155;52.364;6.580;2023-12-07T07:05:27;74.90;;;23.10;;
60306;SDS011;46155;52.364;6.580;2023-12-07T07:07:53;45.90;;;23.00;;
60306;SDS011;46155;52.364;6.580;2023-12-07T07:10:20;84.77;;;25.93;;
60306;SDS011;46155;52.364;6.580;2023-12-07T07:12:46;42.27;;;25.90;;
60306;SDS011;46155;52.364;6.580;2023-12-07T07:15:11;47.67;;;25.03;;
60306;SDS011;46155;52.364;6.580;2023-12-07T07:17:37;28.63;;;23.57;;
60306;SDS011;46155;52.364;6.580;2023-12-07T07:20:02;68.50;;;27.27;;
60306;SDS011;46155;52.364;6.580;2023-12-07T07:22:28;55.40;;;26.30;;
60306;SDS011;46155;52.364;6.580;2023-12-07T07:24:53;35.03;;;27.87;;
60306;SDS011;46155;52.364;6.580;2023-12-07T07:27:18;50.37;;;26.33;;
60306;SDS011;46155;52.364;6.580;2023-12-07T07:29:43;66.00;;;28.50;;
60306;SDS011;46155;52.364;6.580;2023-12-07T07:32:09;32.00;;;25.87;;
60306;SDS011;46155;52.364;6.580;2023-12-07T07:34:35;48.10;;;26.37;;
60306;SDS011;46155;52.364;6.580;2023-12-07T07:37:00;60.00;;;27.67;;
60306;SDS011;46155;52.364;6.580;2023-12-07T07:39:26;48.23;;;29.07;;
60306;SDS011;46155;52.364;6.580;2023-12-07T07:41:51;33.73;;;23.63;;
60306;SDS011;46155;52.364;6.580;2023-12-07T07:44:16;53.03;;;26.03;;
60306;SDS011;46155;52.364;6.580;2023-12-07T07:46:41;56.00;;;25.33;;
60306;SDS011;46155;52.364;6.580;2023-12-07T07:49:07;45.60;;;28.00;;
60306;SDS011;46155;52.364;6.580;2023-12-07T07:51:32;78.20;;;25.93;;
60306;SDS011;46155;52.364;6.580;2023-12-07T07:53:58;58.93;;;25.17;;
60306;SDS011;46155;52.364;6.580;2023-12-07T07:56:24;42.53;;;24.00;;
60306;SDS011;46155;52.364;6.580;2023-12-07T07:58:49;43.77;;;25.17;;
60306;SDS011;46155;52.364;6.580;2023-12-07T08:01:15;40.87;;;26.50;;
60306;SDS011;46155;52.364;6.580;2023-12-07T08:03:40;48.80;;;24.57;;
60306;SDS011;46155;52.364;6.580;2023-12-07T08:06:06;107.10;;;26.93;;
60306;SDS011;46155;52.364;6.580;2023-12-07T08:08:31;86.13;;;25.77;;
60306;SDS011;46155;52.364;6.580;2023-12-07T08:10:57;80.43;;;27.43;;
60306;SDS011;46155;52.364;6.580;2023-12-07T08:13:22;89.63;;;29.50;;
60306;SDS011;46155;52.364;6.580;2023-12-07T08:15:48;55.83;;;27.90;;
60306;SDS011;46155;52.364;6.580;2023-12-07T08:18:13;59.97;;;26.83;;
60306;SDS011;46155;52.364;6.580;2023-12-07T08:20:40;83.53;;;28.83;;
60306;SDS011;46155;52.364;6.580;2023-12-07T08:23:05;57.17;;;28.90;;
60306;SDS011;46155;52.364;6.580;2023-12-07T08:25:30;94.97;;;27.33;;
60306;SDS011;46155;52.364;6.580;2023-12-07T08:27:57;55.37;;;27.23;;
60306;SDS011;46155;52.364;6.580;2023-12-07T08:30:22;51.30;;;28.43;;
60306;SDS011;46155;52.364;6.580;2023-12-07T08:32:47;93.40;;;27.53;;
60306;SDS011;46155;52.364;6.580;2023-12-07T08:35:13;50.70;;;27.17;;
60306;SDS011;46155;52.364;6.580;2023-12-07T08:37:38;48.97;;;25.40;;
60306;SDS011;46155;52.364;6.580;2023-12-07T08:40:04;44.20;;;26.43;;
60306;SDS011;46155;52.364;6.580;2023-12-07T08:42:30;45.17;;;25.43;;
60306;SDS011;46155;52.364;6.580;2023-12-07T08:44:57;57.03;;;26.37;;
60306;SDS011;46155;52.364;6.580;2023-12-07T08:47:22;79.07;;;28.17;;
60306;SDS011;46155;52.364;6.580;2023-12-07T08:49:47;89.87;;;27.67;;
60306;SDS011;46155;52.364;6.580;2023-12-07T08:52:13;74.70;;;26.00;;
60306;SDS011;46155;52.364;6.580;2023-12-07T08:54:38;71.93;;;24.97;;
60306;SDS011;46155;52.364;6.580;2023-12-07T08:57:03;64.67;;;26.47;;
60306;SDS011;46155;52.364;6.580;2023-12-07T08:59:29;76.07;;;29.63;;
60306;SDS011;46155;52.364;6.580;2023-12-07T09:01:55;59.43;;;29.37;;
60306;SDS011;46155;52.364;6.580;2023-12-07T09:04:21;66.40;;;30.37;;
60306;SDS011;46155;52.364;6.580;2023-12-07T09:06:46;58.90;;;29.20;;
60306;SDS011;46155;52.364;6.580;2023-12-07T09:09:11;90.63;;;30.80;;
60306;SDS011;46155;52.364;6.580;2023-12-07T09:11:37;73.07;;;31.03;;
60306;SDS011;46155;52.364;6.580;2023-12-07T09:14:02;71.77;;;31.17;;
60306;SDS011;46155;52.364;6.580;2023-12-07T09:16:27;72.33;;;32.50;;
60306;SDS011;46155;52.364;6.580;2023-12-07T09:18:52;50.17;;;31.97;;
60306;SDS011;46155;52.364;6.580;2023-12-07T09:21:18;100.87;;;33.10;;
60306;SDS011;46155;52.364;6.580;2023-12-07T09:23:43;70.80;;;31.20;;
60306;SDS011;46155;52.364;6.580;2023-12-07T09:26:09;58.97;;;29.93;;
60306;SDS011;46155;52.364;6.580;2023-12-07T09:28:35;91.63;;;29.80;;
60306;SDS011;46155;52.364;6.580;2023-12-07T09:31:00;83.80;;;30.33;;
60306;SDS011;46155;52.364;6.580;2023-12-07T09:33:25;77.30;;;30.77;;
60306;SDS011;46155;52.364;6.580;2023-12-07T09:35:51;61.73;;;29.20;;
60306;SDS011;46155;52.364;6.580;2023-12-07T09:38:16;84.40;;;35.20;;
60306;SDS011;46155;52.364;6.580;2023-12-07T09:40:42;78.73;;;32.53;;
60306;SDS011;46155;52.364;6.580;2023-12-07T09:43:07;75.07;;;31.07;;
60306;SDS011;46155;52.364;6.580;2023-12-07T09:45:33;101.50;;;36.47;;
60306;SDS011;46155;52.364;6.580;2023-12-07T09:47:59;81.40;;;32.80;;
60306;SDS011;46155;52.364;6.580;2023-12-07T09:50:25;64.30;;;32.20;;
60306;SDS011;46155;52.364;6.580;2023-12-07T09:52:56;55.73;;;28.37;;
60306;SDS011;46155;52.364;6.580;2023-12-07T09:55:22;67.40;;;32.13;;
60306;SDS011;46155;52.364;6.580;2023-12-07T09:57:48;115.47;;;34.00;;
60306;SDS011;46155;52.364;6.580;2023-12-07T10:00:15;61.73;;;31.73;;
60306;SDS011;46155;52.364;6.580;2023-12-07T10:02:41;66.80;;;32.77;;
60306;SDS011;46155;52.364;6.580;2023-12-07T10:05:11;64.63;;;31.63;;
60306;SDS011;46155;52.364;6.580;2023-12-07T10:07:48;79.67;;;29.50;;
60306;SDS011;46155;52.364;6.580;2023-12-07T10:10:15;81.30;;;34.00;;
60306;SDS011;46155;52.364;6.580;2023-12-07T10:15:17;89.77;;;32.73;;
60306;SDS011;46155;52.364;6.580;2023-12-07T10:17:53;93.30;;;35.63;;
60306;SDS011;46155;52.364;6.580;2023-12-07T10:20:24;74.17;;;34.40;;
60306;SDS011;46155;52.364;6.580;2023-12-07T10:23:11;65.63;;;31.00;;
60306;SDS011;46155;52.364;6.580;2023-12-07T10:25:39;65.30;;;35.60;;
60306;SDS011;46155;52.364;6.580;2023-12-07T10:28:07;70.10;;;32.80;;
60306;SDS011;46155;52.364;6.580;2023-12-07T10:30:33;60.33;;;33.27;;
60306;SDS011;46155;52.364;6.580;2023-12-07T10:32:59;52.73;;;32.43;;
60306;SDS011;46155;52.364;6.580;2023-12-07T10:35:24;74.87;;;33.97;;
60306;SDS011;46155;52.364;6.580;2023-12-07T10:37:50;57.20;;;32.80;;
60306;SDS011;46155;52.364;6.580;2023-12-07T10:40:16;56.40;;;36.77;;
60306;SDS011;46155;52.364;6.580;2023-12-07T10:42:41;53.70;;;31.33;;
60306;SDS011;46155;52.364;6.580;2023-12-07T10:45:07;71.07;;;37.60;;
60306;SDS011;46155;52.364;6.580;2023-12-07T10:47:35;75.77;;;35.67;;
60306;SDS011;46155;52.364;6.580;2023-12-07T10:50:02;50.23;;;32.50;;
60306;SDS011;46155;52.364;6.580;2023-12-07T10:52:31;54.60;;;31.80;;
60306;SDS011;46155;52.364;6.580;2023-12-07T10:57:38;65.57;;;35.20;;
60306;SDS011;46155;52.364;6.580;2023-12-07T11:00:05;79.67;;;38.10;;
60306;SDS011;46155;52.364;6.580;2023-12-07T11:02:32;75.40;;;33.33;;
60306;SDS011;46155;52.364;6.580;2023-12-07T11:04:58;63.47;;;32.77;;
60306;SDS011;46155;52.364;6.580;2023-12-07T11:07:27;66.80;;;35.13;;
60306;SDS011;46155;52.364;6.580;2023-12-07T11:10:05;58.50;;;33.23;;
60306;SDS011;46155;52.364;6.580;2023-12-07T11:12:47;60.57;;;32.97;;
60306;SDS011;46155;52.364;6.580;2023-12-07T11:15:18;87.47;;;36.50;;
60306;SDS011;46155;52.364;6.580;2023-12-07T11:17:50;57.60;;;31.50;;
60306;SDS011;46155;52.364;6.580;2023-12-07T11:20:18;62.37;;;33.43;;
60306;SDS011;46155;52.364;6.580;2023-12-07T11:22:45;63.50;;;34.83;;
60306;SDS011;46155;52.364;6.580;2023-12-07T11:25:10;66.57;;;33.27;;
60306;SDS011;46155;52.364;6.580;2023-12-07T11:27:36;54.43;;;32.77;;
60306;SDS011;46155;52.364;6.580;2023-12-07T11:30:02;55.47;;;35.57;;
60306;SDS011;46155;52.364;6.580;2023-12-07T11:32:28;75.93;;;35.97;;
60306;SDS011;46155;52.364;6.580;2023-12-07T11:34:54;83.93;;;39.53;;
60306;SDS011;46155;52.364;6.580;2023-12-07T11:37:19;55.70;;;32.73;;
60306;SDS011;46155;52.364;6.580;2023-12-07T11:39:45;58.67;;;33.57;;
60306;SDS011;46155;52.364;6.580;2023-12-07T11:42:11;62.63;;;32.97;;
60306;SDS011;46155;52.364;6.580;2023-12-07T11:44:40;66.97;;;34.43;;
60306;SDS011;46155;52.364;6.580;2023-12-07T11:47:06;59.77;;;34.80;;
60306;SDS011;46155;52.364;6.580;2023-12-07T11:49:32;69.93;;;35.57;;
60306;SDS011;46155;52.364;6.580;2023-12-07T11:52:01;63.97;;;33.30;;
60306;SDS011;46155;52.364;6.580;2023-12-07T11:54:37;80.67;;;35.97;;
60306;SDS011;46155;52.364;6.580;2023-12-07T11:57:02;61.07;;;35.47;;
60306;SDS011;46155;52.364;6.580;2023-12-07T11:59:28;66.87;;;35.00;;
60306;SDS011;46155;52.364;6.580;2023-12-07T12:01:54;66.67;;;37.77;;
60306;SDS011;46155;52.364;6.580;2023-12-07T12:04:21;57.80;;;36.90;;
60306;SDS011;46155;52.364;6.580;2023-12-07T12:06:47;63.70;;;35.17;;
60306;SDS011;46155;52.364;6.580;2023-12-07T12:09:12;75.73;;;36.83;;
60306;SDS011;46155;52.364;6.580;2023-12-07T12:11:50;74.57;;;36.93;;
60306;SDS011;46155;52.364;6.580;2023-12-07T12:14:19;69.50;;;37.60;;
60306;SDS011;46155;52.364;6.580;2023-12-07T12:16:45;71.20;;;37.77;;
60306;SDS011;46155;52.364;6.580;2023-12-07T12:19:11;73.73;;;37.53;;
60306;SDS011;46155;52.364;6.580;2023-12-07T12:21:37;67.10;;;35.57;;
60306;SDS011;46155;52.364;6.580;2023-12-07T12:24:06;68.93;;;36.67;;
60306;SDS011;46155;52.364;6.580;2023-12-07T12:26:34;85.53;;;39.70;;
60306;SDS011;46155;52.364;6.580;2023-12-07T12:29:02;91.60;;;43.63;;
60306;SDS011;46155;52.364;6.580;2023-12-07T12:31:28;87.10;;;43.80;;
60306;SDS011;46155;52.364;6.580;2023-12-07T12:33:54;79.83;;;41.90;;
60306;SDS011;46155;52.364;6.580;2023-12-07T12:36:20;91.47;;;40.97;;
60306;SDS011;46155;52.364;6.580;2023-12-07T12:38:48;86.80;;;40.17;;
60306;SDS011;46155;52.364;6.580;2023-12-07T12:41:18;88.53;;;43.60;;
60306;SDS011;46155;52.364;6.580;2023-12-07T12:43:44;90.33;;;40.87;;
60306;SDS011;46155;52.364;6.580;2023-12-07T12:46:10;80.17;;;40.60;;
60306;SDS011;46155;52.364;6.580;2023-12-07T12:48:36;88.83;;;42.10;;
60306;SDS011;46155;52.364;6.580;2023-12-07T12:51:08;90.17;;;41.67;;
60306;SDS011;46155;52.364;6.580;2023-12-07T12:53:40;102.27;;;44.47;;
60306;SDS011;46155;52.364;6.580;2023-12-07T12:56:10;91.93;;;42.13;;
60306;SDS011;46155;52.364;6.580;2023-12-07T12:58:36;108.17;;;41.47;;
60306;SDS011;46155;52.364;6.580;2023-12-07T13:01:01;94.60;;;43.40;;
60306;SDS011;46155;52.364;6.580;2023-12-07T13:03:28;97.83;;;45.70;;
60306;SDS011;46155;52.364;6.580;2023-12-07T13:05:53;110.30;;;48.40;;
60306;SDS011;46155;52.364;6.580;2023-12-07T13:08:19;86.63;;;45.13;;
60306;SDS011;46155;52.364;6.580;2023-12-07T13:10:44;105.17;;;48.80;;
60306;SDS011;46155;52.364;6.580;2023-12-07T13:13:09;105.37;;;49.37;;
60306;SDS011;46155;52.364;6.580;2023-12-07T13:15:34;119.47;;;51.87;;
60306;SDS011;46155;52.364;6.580;2023-12-07T13:18:00;111.83;;;51.43;;
60306;SDS011;46155;52.364;6.580;2023-12-07T13:20:25;104.83;;;49.67;;
60306;SDS011;46155;52.364;6.580;2023-12-07T13:22:50;96.87;;;44.87;;
60306;SDS011;46155;52.364;6.580;2023-12-07T13:25:16;95.50;;;47.43;;
60306;SDS011;46155;52.364;6.580;2023-12-07T13:27:41;102.90;;;49.07;;
60306;SDS011;46155;52.364;6.580;2023-12-07T13:30:08;99.07;;;46.63;;
60306;SDS011;46155;52.364;6.580;2023-12-07T13:32:34;98.63;;;48.40;;
60306;SDS011;46155;52.364;6.580;2023-12-07T13:35:01;105.20;;;47.63;;
60306;SDS011;46155;52.364;6.580;2023-12-07T13:37:27;93.63;;;44.80;;
60306;SDS011;46155;52.364;6.580;2023-12-07T13:39:53;111.93;;;47.27;;
60306;SDS011;46155;52.364;6.580;2023-12-07T13:42:23;104.33;;;46.87;;
60306;SDS011;46155;52.364;6.580;2023-12-07T13:44:51;95.37;;;46.07;;
60306;SDS011;46155;52.364;6.580;2023-12-07T13:47:22;106.47;;;45.90;;
60306;SDS011;46155;52.364;6.580;2023-12-07T13:49:51;83.20;;;44.80;;
60306;SDS011;46155;52.364;6.580;2023-12-07T13:52:16;91.07;;;45.10;;
60306;SDS011;46155;52.364;6.580;2023-12-07T13:54:42;103.33;;;46.57;;
60306;SDS011;46155;52.364;6.580;2023-12-07T13:57:08;91.70;;;42.90;;
60306;SDS011;46155;52.364;6.580;2023-12-07T13:59:33;95.93;;;46.87;;
60306;SDS011;46155;52.364;6.580;2023-12-07T14:01:58;98.80;;;47.73;;
60306;SDS011;46155;52.364;6.580;2023-12-07T14:04:24;108.33;;;50.23;;
60306;SDS011;46155;52.364;6.580;2023-12-07T14:06:49;105.13;;;46.13;;
60306;SDS011;46155;52.364;6.580;2023-12-07T14:09:17;93.77;;;44.63;;
60306;SDS011;46155;52.364;6.580;2023-12-07T14:11:43;92.90;;;44.37;;
60306;SDS011;46155;52.364;6.580;2023-12-07T14:14:08;96.50;;;46.70;;
60306;SDS011;46155;52.364;6.580;2023-12-07T14:16:34;95.13;;;44.20;;
60306;SDS011;46155;52.364;6.580;2023-12-07T14:18:59;99.33;;;47.10;;
60306;SDS011;46155;52.364;6.580;2023-12-07T14:21:24;94.33;;;45.00;;
60306;SDS011;46155;52.364;6.580;2023-12-07T14:23:50;85.63;;;43.63;;
60306;SDS011;46155;52.364;6.580;2023-12-07T14:26:15;81.27;;;40.30;;
60306;SDS011;46155;52.364;6.580;2023-12-07T14:28:40;83.83;;;44.33;;
60306;SDS011;46155;52.364;6.580;2023-12-07T14:31:07;78.40;;;42.27;;
60306;SDS011;46155;52.364;6.580;2023-12-07T14:33:39;74.13;;;38.97;;
60306;SDS011;46155;52.364;6.580;2023-12-07T14:36:04;86.63;;;43.20;;
60306;SDS011;46155;52.364;6.580;2023-12-07T14:38:30;91.10;;;41.43;;
60306;SDS011;46155;52.364;6.580;2023-12-07T14:40:57;89.43;;;42.00;;
60306;SDS011;46155;52.364;6.580;2023-12-07T14:43:22;81.03;;;42.00;;
60306;SDS011;46155;52.364;6.580;2023-12-07T14:45:47;75.90;;;42.13;;
60306;SDS011;46155;52.364;6.580;2023-12-07T14:48:13;84.77;;;39.73;;
60306;SDS011;46155;52.364;6.580;2023-12-07T14:50:38;93.83;;;43.13;;
60306;SDS011;46155;52.364;6.580;2023-12-07T14:53:04;68.57;;;42.20;;
60306;SDS011;46155;52.364;6.580;2023-12-07T14:55:29;74.20;;;40.97;;
60306;SDS011;46155;52.364;6.580;2023-12-07T14:57:54;77.77;;;40.73;;
60306;SDS011;46155;52.364;6.580;2023-12-07T15:00:20;78.63;;;41.63;;
60306;SDS011;46155;52.364;6.580;2023-12-07T15:02:45;67.40;;;37.27;;
60306;SDS011;46155;52.364;6.580;2023-12-07T15:05:10;67.03;;;35.73;;
60306;SDS011;46155;52.364;6.580;2023-12-07T15:07:36;77.23;;;39.10;;
60306;SDS011;46155;52.364;6.580;2023-12-07T15:10:01;70.80;;;35.83;;
60306;SDS011;46155;52.364;6.580;2023-12-07T15:12:28;77.77;;;41.30;;
60306;SDS011;46155;52.364;6.580;2023-12-07T15:14:53;74.53;;;41.13;;
60306;SDS011;46155;52.364;6.580;2023-12-07T15:17:19;74.97;;;41.77;;
60306;SDS011;46155;52.364;6.580;2023-12-07T15:19:44;83.70;;;41.93;;
60306;SDS011;46155;52.364;6.580;2023-12-07T15:22:10;78.37;;;46.20;;
60306;SDS011;46155;52.364;6.580;2023-12-07T15:24:35;72.83;;;40.17;;
60306;SDS011;46155;52.364;6.580;2023-12-07T15:27:01;88.07;;;42.23;;
60306;SDS011;46155;52.364;6.580;2023-12-07T15:29:26;86.43;;;45.53;;
60306;SDS011;46155;52.364;6.580;2023-12-07T15:31:51;75.37;;;41.93;;
60306;SDS011;46155;52.364;6.580;2023-12-07T15:34:17;84.03;;;44.13;;
60306;SDS011;46155;52.364;6.580;2023-12-07T15:36:42;80.57;;;42.77;;
60306;SDS011;46155;52.364;6.580;2023-12-07T15:39:08;82.57;;;42.47;;
60306;SDS011;46155;52.364;6.580;2023-12-07T15:41:36;81.10;;;44.83;;
60306;SDS011;46155;52.364;6.580;2023-12-07T15:44:02;72.63;;;43.00;;
60306;SDS011;46155;52.364;6.580;2023-12-07T15:46:27;92.07;;;42.53;;
60306;SDS011;46155;52.364;6.580;2023-12-07T15:48:53;76.60;;;40.07;;
60306;SDS011;46155;52.364;6.580;2023-12-07T15:51:19;72.40;;;41.47;;
60306;SDS011;46155;52.364;6.580;2023-12-07T15:53:44;83.47;;;40.83;;
60306;SDS011;46155;52.364;6.580;2023-12-07T15:56:09;75.13;;;38.07;;
60306;SDS011;46155;52.364;6.580;2023-12-07T15:58:35;75.63;;;40.33;;
60306;SDS011;46155;52.364;6.580;2023-12-07T16:01:00;72.73;;;38.80;;
60306;SDS011;46155;52.364;6.580;2023-12-07T16:03:26;70.73;;;42.67;;
60306;SDS011;46155;52.364;6.580;2023-12-07T16:05:53;78.77;;;42.97;;
60306;SDS011;46155;52.364;6.580;2023-12-07T16:08:18;77.73;;;42.03;;
60306;SDS011;46155;52.364;6.580;2023-12-07T16:10:44;88.47;;;42.33;;
60306;SDS011;46155;52.364;6.580;2023-12-07T16:13:09;77.80;;;40.13;;
60306;SDS011;46155;52.364;6.580;2023-12-07T16:15:35;79.80;;;39.77;;
60306;SDS011;46155;52.364;6.580;2023-12-07T16:18:00;88.10;;;40.60;;
60306;SDS011;46155;52.364;6.580;2023-12-07T16:20:26;77.20;;;40.43;;
60306;SDS011;46155;52.364;6.580;2023-12-07T16:22:51;73.33;;;39.93;;
60306;SDS011;46155;52.364;6.580;2023-12-07T16:25:16;83.17;;;39.83;;
60306;SDS011;46155;52.364;6.580;2023-12-07T16:27:41;82.43;;;43.40;;
60306;SDS011;46155;52.364;6.580;2023-12-07T16:30:07;74.73;;;39.93;;
60306;SDS011;46155;52.364;6.580;2023-12-07T16:32:35;72.93;;;40.23;;
60306;SDS011;46155;52.364;6.580;2023-12-07T16:35:01;70.20;;;38.73;;
60306;SDS011;46155;52.364;6.580;2023-12-07T16:37:26;81.73;;;42.00;;
60306;SDS011;46155;52.364;6.580;2023-12-07T16:39:52;78.77;;;39.03;;
60306;SDS011;46155;52.364;6.580;2023-12-07T16:42:17;76.97;;;38.90;;
60306;SDS011;46155;52.364;6.580;2023-12-07T16:44:42;75.57;;;38.53;;
60306;SDS011;46155;52.364;6.580;2023-12-07T16:47:09;73.13;;;41.50;;
60306;SDS011;46155;52.364;6.580;2023-12-07T16:49:34;80.40;;;39.30;;
60306;SDS011;46155;52.364;6.580;2023-12-07T16:52:00;73.90;;;38.83;;
60306;SDS011;46155;52.364;6.580;2023-12-07T16:54:26;75.23;;;38.93;;
60306;SDS011;46155;52.364;6.580;2023-12-07T16:56:51;69.47;;;36.40;;
60306;SDS011;46155;52.364;6.580;2023-12-07T16:59:17;87.13;;;39.63;;
60306;SDS011;46155;52.364;6.580;2023-12-07T17:01:42;78.57;;;37.87;;
60306;SDS011;46155;52.364;6.580;2023-12-07T17:04:08;65.27;;;36.17;;
60306;SDS011;46155;52.364;6.580;2023-12-07T17:06:33;77.90;;;36.60;;
60306;SDS011;46155;52.364;6.580;2023-12-07T17:08:59;75.50;;;38.87;;
60306;SDS011;46155;52.364;6.580;2023-12-07T17:11:24;76.00;;;36.60;;
60306;SDS011;46155;52.364;6.580;2023-12-07T17:13:49;69.53;;;38.00;;
60306;SDS011;46155;52.364;6.580;2023-12-07T17:16:15;68.73;;;37.20;;
60306;SDS011;46155;52.364;6.580;2023-12-07T17:18:40;76.57;;;38.77;;
60306;SDS011;46155;52.364;6.580;2023-12-07T17:21:05;68.47;;;34.27;;
60306;SDS011;46155;52.364;6.580;2023-12-07T17:23:31;68.27;;;39.77;;
60306;SDS011;46155;52.364;6.580;2023-12-07T17:25:57;71.13;;;35.10;;
60306;SDS011;46155;52.364;6.580;2023-12-07T17:28:23;76.60;;;40.87;;
60306;SDS011;46155;52.364;6.580;2023-12-07T17:30:48;64.27;;;36.40;;
60306;SDS011;46155;52.364;6.580;2023-12-07T17:33:14;82.00;;;38.77;;
60306;SDS011;46155;52.364;6.580;2023-12-07T17:35:39;74.13;;;37.40;;
60306;SDS011;46155;52.364;6.580;2023-12-07T17:38:04;75.57;;;37.87;;
60306;SDS011;46155;52.364;6.580;2023-12-07T17:40:29;70.67;;;38.67;;
60306;SDS011;46155;52.364;6.580;2023-12-07T17:42:55;65.23;;;37.07;;
60306;SDS011;46155;52.364;6.580;2023-12-07T17:45:20;66.90;;;36.30;;
60306;SDS011;46155;52.364;6.580;2023-12-07T17:47:45;79.40;;;38.30;;
60306;SDS011;46155;52.364;6.580;2023-12-07T17:50:11;69.07;;;36.20;;
60306;SDS011;46155;52.364;6.580;2023-12-07T17:52:36;78.20;;;37.37;;
60306;SDS011;46155;52.364;6.580;2023-12-07T17:55:03;72.77;;;36.23;;
60306;SDS011;46155;52.364;6.580;2023-12-07T17:57:29;87.27;;;34.87;;
60306;SDS011;46155;52.364;6.580;2023-12-07T17:59:54;83.97;;;37.13;;
60306;SDS011;46155;52.364;6.580;2023-12-07T18:02:19;70.43;;;37.20;;
60306;SDS011;46155;52.364;6.580;2023-12-07T18:04:44;69.50;;;33.03;;
60306;SDS011;46155;52.364;6.580;2023-12-07T18:07:10;80.57;;;33.20;;
60306;SDS011;46155;52.364;6.580;2023-12-07T18:09:35;71.10;;;34.63;;
60306;SDS011;46155;52.364;6.580;2023-12-07T18:12:00;74.00;;;36.47;;
60306;SDS011;46155;52.364;6.580;2023-12-07T18:14:26;74.07;;;38.07;;
60306;SDS011;46155;52.364;6.580;2023-12-07T18:16:54;83.23;;;38.13;;
60306;SDS011;46155;52.364;6.580;2023-12-07T18:19:19;74.93;;;36.07;;